< < Back
Terminal Aerodrome Forecast


Current Version              Previous Versions:   1  2  3  4  5  6  7  8  9  

Terminal Aerodrome Forecast

223
FTUS42 KTAE 182337
TAFDHN
TAF
KDHN 182337Z 1900/1924 00000KT P6SM VCSH SCT007 BKN110
     FM190600 18005KT 3SM -RA BR OVC007
     FM191100 21013G20KT 3SM TSRA SCT003 BKN020CB
     FM191900 22010G15KT P6SM BKN050=

Latest METAR

607
SAUS70 KWBC 191200 RRH
MTRDHN
METAR KDHN 191153Z AUTO 16008KT 5SM BR BKN005 BKN013 OVC022 22/21 A2984
RMK AO2 CIG 004V008 SLP100 60003 70005 T02170211 10217 20211
58005


USA.gov is the U.S. government's official web portal to all federal, state and local government web resources and services.